sensor_id;sensor_type;location;lat;lon;timestamp;temperature;humidity
38854;DHT22;24606;51.992;4.198;2022-09-09T00:04:37;25.20;57.00
38854;DHT22;24606;51.992;4.198;2022-09-09T00:09:45;25.20;56.80
38854;DHT22;24606;51.992;4.198;2022-09-09T00:14:51;25.40;57.00
38854;DHT22;24606;51.992;4.198;2022-09-09T00:19:59;25.40;56.60
38854;DHT22;24606;51.992;4.198;2022-09-09T00:25:10;25.40;56.50
38854;DHT22;24606;51.992;4.198;2022-09-09T00:30:16;25.40;56.30
38854;DHT22;24606;51.992;4.198;2022-09-09T00:35:23;25.40;56.20
38854;DHT22;24606;51.992;4.198;2022-09-09T00:40:32;25.40;56.20
38854;DHT22;24606;51.992;4.198;2022-09-09T00:45:48;25.40;56.30
38854;DHT22;24606;51.992;4.198;2022-09-09T00:50:57;25.50;56.30
38854;DHT22;24606;51.992;4.198;2022-09-09T00:56:09;25.40;56.40
38854;DHT22;24606;51.992;4.198;2022-09-09T01:01:13;25.40;56.20
38854;DHT22;24606;51.992;4.198;2022-09-09T01:06:19;25.40;56.40
38854;DHT22;24606;51.992;4.198;2022-09-09T01:11:28;25.30;56.20
38854;DHT22;24606;51.992;4.198;2022-09-09T01:16:34;25.20;56.20
38854;DHT22;24606;51.992;4.198;2022-09-09T01:21:43;25.80;56.50
38854;DHT22;24606;51.992;4.198;2022-09-09T01:26:52;25.20;56.80
38854;DHT22;24606;51.992;4.198;2022-09-09T01:31:58;25.20;56.20
38854;DHT22;24606;51.992;4.198;2022-09-09T01:37:03;25.20;56.20
38854;DHT22;24606;51.992;4.198;2022-09-09T01:42:09;25.10;56.10
38854;DHT22;24606;51.992;4.198;2022-09-09T01:47:14;25.20;56.30
38854;DHT22;24606;51.992;4.198;2022-09-09T01:52:17;25.00;56.40
38854;DHT22;24606;51.992;4.198;2022-09-09T01:57:23;25.20;56.50
38854;DHT22;24606;51.992;4.198;2022-09-09T02:02:30;25.10;56.40
38854;DHT22;24606;51.992;4.198;2022-09-09T02:07:38;25.30;56.50
38854;DHT22;24606;51.992;4.198;2022-09-09T02:12:45;24.90;56.40
38854;DHT22;24606;51.992;4.198;2022-09-09T02:17:50;24.90;56.70
38854;DHT22;24606;51.992;4.198;2022-09-09T02:22:54;24.90;56.40
38854;DHT22;24606;51.992;4.198;2022-09-09T02:27:58;24.90;56.40
38854;DHT22;24606;51.992;4.198;2022-09-09T02:33:04;24.90;57.40
38854;DHT22;24606;51.992;4.198;2022-09-09T02:38:10;24.90;56.80
38854;DHT22;24606;51.992;4.198;2022-09-09T02:43:15;24.90;56.60
38854;DHT22;24606;51.992;4.198;2022-09-09T02:48:22;24.80;56.60
38854;DHT22;24606;51.992;4.198;2022-09-09T02:53:33;24.70;56.70
38854;DHT22;24606;51.992;4.198;2022-09-09T02:58:39;24.70;56.80
38854;DHT22;24606;51.992;4.198;2022-09-09T03:03:41;24.70;56.60
38854;DHT22;24606;51.992;4.198;2022-09-09T03:08:44;24.70;56.80
38854;DHT22;24606;51.992;4.198;2022-09-09T03:13:48;24.60;56.80
38854;DHT22;24606;51.992;4.198;2022-09-09T03:18:50;24.60;57.00
38854;DHT22;24606;51.992;4.198;2022-09-09T03:23:52;24.50;57.20
38854;DHT22;24606;51.992;4.198;2022-09-09T03:28:56;24.60;57.90
38854;DHT22;24606;51.992;4.198;2022-09-09T03:33:58;24.40;57.70
38854;DHT22;24606;51.992;4.198;2022-09-09T03:39:00;24.50;56.80
38854;DHT22;24606;51.992;4.198;2022-09-09T03:44:05;24.80;57.20
38854;DHT22;24606;51.992;4.198;2022-09-09T03:49:06;24.40;57.10
38854;DHT22;24606;51.992;4.198;2022-09-09T03:54:09;24.50;57.10
38854;DHT22;24606;51.992;4.198;2022-09-09T03:59:13;24.30;57.20
38854;DHT22;24606;51.992;4.198;2022-09-09T04:04:15;24.30;57.30
38854;DHT22;24606;51.992;4.198;2022-09-09T04:09:17;24.40;57.20
38854;DHT22;24606;51.992;4.198;2022-09-09T04:14:20;24.40;57.30
38854;DHT22;24606;51.992;4.198;2022-09-09T04:19:22;24.30;57.10
38854;DHT22;24606;51.992;4.198;2022-09-09T04:24:24;24.40;57.40
38854;DHT22;24606;51.992;4.198;2022-09-09T04:29:30;24.30;57.30
38854;DHT22;24606;51.992;4.198;2022-09-09T04:34:32;24.30;57.40
38854;DHT22;24606;51.992;4.198;2022-09-09T04:39:34;24.30;57.50
38854;DHT22;24606;51.992;4.198;2022-09-09T04:44:37;24.20;57.00
38854;DHT22;24606;51.992;4.198;2022-09-09T04:49:39;24.20;58.30
38854;DHT22;24606;51.992;4.198;2022-09-09T04:54:41;24.30;57.60
38854;DHT22;24606;51.992;4.198;2022-09-09T04:59:44;24.30;58.30
38854;DHT22;24606;51.992;4.198;2022-09-09T05:04:46;24.20;58.00
38854;DHT22;24606;51.992;4.198;2022-09-09T05:09:50;24.20;57.80
38854;DHT22;24606;51.992;4.198;2022-09-09T05:14:53;24.10;57.70
38854;DHT22;24606;51.992;4.198;2022-09-09T05:19:54;24.20;57.80
38854;DHT22;24606;51.992;4.198;2022-09-09T05:24:57;23.90;58.40
38854;DHT22;24606;51.992;4.198;2022-09-09T05:30:00;24.90;58.10
38854;DHT22;24606;51.992;4.198;2022-09-09T05:35:02;23.80;58.80
38854;DHT22;24606;51.992;4.198;2022-09-09T05:40:05;24.00;58.50
38854;DHT22;24606;51.992;4.198;2022-09-09T05:45:09;23.80;58.30
38854;DHT22;24606;51.992;4.198;2022-09-09T05:50:12;23.80;58.10
38854;DHT22;24606;51.992;4.198;2022-09-09T05:55:15;24.00;58.30
38854;DHT22;24606;51.992;4.198;2022-09-09T06:00:18;24.10;58.10
38854;DHT22;24606;51.992;4.198;2022-09-09T06:05:20;23.70;59.00
38854;DHT22;24606;51.992;4.198;2022-09-09T06:10:23;24.00;58.10
38854;DHT22;24606;51.992;4.198;2022-09-09T06:15:26;24.00;58.60
38854;DHT22;24606;51.992;4.198;2022-09-09T06:20:30;24.00;58.80
38854;DHT22;24606;51.992;4.198;2022-09-09T06:25:33;23.90;58.40
38854;DHT22;24606;51.992;4.198;2022-09-09T06:30:36;24.00;58.00
38854;DHT22;24606;51.992;4.198;2022-09-09T06:35:38;23.90;58.20
38854;DHT22;24606;51.992;4.198;2022-09-09T06:40:40;23.50;58.80
38854;DHT22;24606;51.992;4.198;2022-09-09T06:45:43;23.70;58.30
38854;DHT22;24606;51.992;4.198;2022-09-09T06:50:45;24.00;58.10
38854;DHT22;24606;51.992;4.198;2022-09-09T06:55:47;24.10;57.60
38854;DHT22;24606;51.992;4.198;2022-09-09T07:00:50;23.70;59.00
38854;DHT22;24606;51.992;4.198;2022-09-09T07:05:56;24.00;58.40
38854;DHT22;24606;51.992;4.198;2022-09-09T07:11:03;24.10;58.10
38854;DHT22;24606;51.992;4.198;2022-09-09T07:16:09;24.70;58.70
38854;DHT22;24606;51.992;4.198;2022-09-09T07:21:14;23.80;57.70
38854;DHT22;24606;51.992;4.198;2022-09-09T07:26:18;23.90;58.30
38854;DHT22;24606;51.992;4.198;2022-09-09T07:31:23;24.00;57.80
38854;DHT22;24606;51.992;4.198;2022-09-09T07:36:27;24.10;57.70
38854;DHT22;24606;51.992;4.198;2022-09-09T07:41:31;24.00;57.90
38854;DHT22;24606;51.992;4.198;2022-09-09T07:46:36;24.10;57.50
38854;DHT22;24606;51.992;4.198;2022-09-09T07:51:42;23.60;58.40
38854;DHT22;24606;51.992;4.198;2022-09-09T07:56:44;23.80;58.00
38854;DHT22;24606;51.992;4.198;2022-09-09T08:01:50;23.90;57.90
38854;DHT22;24606;51.992;4.198;2022-09-09T08:06:56;24.00;58.10
38854;DHT22;24606;51.992;4.198;2022-09-09T08:11:58;23.90;57.80
38854;DHT22;24606;51.992;4.198;2022-09-09T08:17:03;23.80;58.40
38854;DHT22;24606;51.992;4.198;2022-09-09T08:22:05;23.90;58.10
38854;DHT22;24606;51.992;4.198;2022-09-09T08:27:06;23.60;58.30
38854;DHT22;24606;51.992;4.198;2022-09-09T08:32:13;23.40;59.10
38854;DHT22;24606;51.992;4.198;2022-09-09T08:37:15;23.40;58.90
38854;DHT22;24606;51.992;4.198;2022-09-09T08:42:34;23.50;58.50
38854;DHT22;24606;51.992;4.198;2022-09-09T08:47:45;23.50;58.60
38854;DHT22;24606;51.992;4.198;2022-09-09T08:52:56;23.50;58.60
38854;DHT22;24606;51.992;4.198;2022-09-09T08:58:13;23.70;58.20
38854;DHT22;24606;51.992;4.198;2022-09-09T09:03:22;23.90;57.80
38854;DHT22;24606;51.992;4.198;2022-09-09T09:08:33;23.40;59.10
38854;DHT22;24606;51.992;4.198;2022-09-09T09:13:40;23.60;58.40
38854;DHT22;24606;51.992;4.198;2022-09-09T09:18:46;23.70;58.40
38854;DHT22;24606;51.992;4.198;2022-09-09T09:23:58;23.70;58.40
38854;DHT22;24606;51.992;4.198;2022-09-09T09:29:01;23.60;58.80
38854;DHT22;24606;51.992;4.198;2022-09-09T09:34:08;22.80;57.90
38854;DHT22;24606;51.992;4.198;2022-09-09T09:39:23;23.70;58.40
38854;DHT22;24606;51.992;4.198;2022-09-09T09:44:27;23.80;58.50
38854;DHT22;24606;51.992;4.198;2022-09-09T09:49:30;23.40;59.00
38854;DHT22;24606;51.992;4.198;2022-09-09T09:54:34;23.80;58.50
38854;DHT22;24606;51.992;4.198;2022-09-09T09:59:39;24.40;59.00
38854;DHT22;24606;51.992;4.198;2022-09-09T10:04:42;23.40;59.40
38854;DHT22;24606;51.992;4.198;2022-09-09T10:09:48;24.40;59.30
38854;DHT22;24606;51.992;4.198;2022-09-09T10:14:57;23.70;59.00
38854;DHT22;24606;51.992;4.198;2022-09-09T10:20:18;23.90;58.40
38854;DHT22;24606;51.992;4.198;2022-09-09T10:25:38;23.90;58.20
38854;DHT22;24606;51.992;4.198;2022-09-09T10:30:52;23.80;58.80
38854;DHT22;24606;51.992;4.198;2022-09-09T10:36:05;23.60;60.50
38854;DHT22;24606;51.992;4.198;2022-09-09T10:41:16;23.70;59.10
38854;DHT22;24606;51.992;4.198;2022-09-09T10:46:26;24.00;59.40
38854;DHT22;24606;51.992;4.198;2022-09-09T10:51:37;23.80;59.10
38854;DHT22;24606;51.992;4.198;2022-09-09T10:56:44;23.70;59.90
38854;DHT22;24606;51.992;4.198;2022-09-09T11:01:53;23.70;61.00
38854;DHT22;24606;51.992;4.198;2022-09-09T11:07:04;23.70;59.30
38854;DHT22;24606;51.992;4.198;2022-09-09T11:12:12;23.90;58.90
38854;DHT22;24606;51.992;4.198;2022-09-09T11:17:19;24.10;58.80
38854;DHT22;24606;51.992;4.198;2022-09-09T11:22:28;23.60;61.10
38854;DHT22;24606;51.992;4.198;2022-09-09T11:27:36;23.40;61.90
38854;DHT22;24606;51.992;4.198;2022-09-09T11:33:07;23.20;61.60
38854;DHT22;24606;51.992;4.198;2022-09-09T11:38:19;23.70;61.00
38854;DHT22;24606;51.992;4.198;2022-09-09T11:43:25;22.50;64.60
38854;DHT22;24606;51.992;4.198;2022-09-09T11:48:38;21.60;69.30
38854;DHT22;24606;51.992;4.198;2022-09-09T11:53:53;22.90;63.70
38854;DHT22;24606;51.992;4.198;2022-09-09T11:58:57;23.20;62.80
38854;DHT22;24606;51.992;4.198;2022-09-09T12:04:32;22.70;66.00
38854;DHT22;24606;51.992;4.198;2022-09-09T12:09:47;23.30;62.70
38854;DHT22;24606;51.992;4.198;2022-09-09T12:15:00;24.00;60.40
38854;DHT22;24606;51.992;4.198;2022-09-09T12:20:12;23.60;61.60
38854;DHT22;24606;51.992;4.198;2022-09-09T12:25:23;22.50;66.70
38854;DHT22;24606;51.992;4.198;2022-09-09T12:30:31;23.60;61.70
38854;DHT22;24606;51.992;4.198;2022-09-09T12:35:36;24.10;61.60
38854;DHT22;24606;51.992;4.198;2022-09-09T12:40:41;23.60;61.20
38854;DHT22;24606;51.992;4.198;2022-09-09T12:45:42;23.00;63.50
38854;DHT22;24606;51.992;4.198;2022-09-09T12:50:48;23.70;61.20
38854;DHT22;24606;51.992;4.198;2022-09-09T12:55:55;23.60;61.70
38854;DHT22;24606;51.992;4.198;2022-09-09T13:00:59;23.50;62.50
38854;DHT22;24606;51.992;4.198;2022-09-09T13:06:12;23.60;62.30
38854;DHT22;24606;51.992;4.198;2022-09-09T13:11:18;23.60;61.40
38854;DHT22;24606;51.992;4.198;2022-09-09T13:16:26;22.10;69.10
38854;DHT22;24606;51.992;4.198;2022-09-09T13:21:33;21.10;70.70
38854;DHT22;24606;51.992;4.198;2022-09-09T13:26:37;21.80;67.40
38854;DHT22;24606;51.992;4.198;2022-09-09T13:31:39;23.20;62.80
38854;DHT22;24606;51.992;4.198;2022-09-09T13:36:46;23.30;61.80
38854;DHT22;24606;51.992;4.198;2022-09-09T13:41:50;23.90;64.10
38854;DHT22;24606;51.992;4.198;2022-09-09T13:47:04;23.30;62.60
38854;DHT22;24606;51.992;4.198;2022-09-09T13:52:09;24.00;60.60
38854;DHT22;24606;51.992;4.198;2022-09-09T13:57:16;23.60;61.70
38854;DHT22;24606;51.992;4.198;2022-09-09T14:02:19;23.60;61.80
38854;DHT22;24606;51.992;4.198;2022-09-09T14:07:21;23.00;64.10
38854;DHT22;24606;51.992;4.198;2022-09-09T14:12:25;20.90;78.00
38854;DHT22;24606;51.992;4.198;2022-09-09T14:17:27;22.50;70.30
38854;DHT22;24606;51.992;4.198;2022-09-09T14:22:30;22.50;68.30
38854;DHT22;24606;51.992;4.198;2022-09-09T14:27:33;21.40;71.00
38854;DHT22;24606;51.992;4.198;2022-09-09T14:32:35;21.40;71.70
38854;DHT22;24606;51.992;4.198;2022-09-09T14:37:36;22.10;68.30
38854;DHT22;24606;51.992;4.198;2022-09-09T14:42:41;21.30;71.40
38854;DHT22;24606;51.992;4.198;2022-09-09T14:47:42;20.90;72.30
38854;DHT22;24606;51.992;4.198;2022-09-09T14:52:45;21.40;72.20
38854;DHT22;24606;51.992;4.198;2022-09-09T14:57:48;21.50;70.10
38854;DHT22;24606;51.992;4.198;2022-09-09T15:02:52;20.80;76.90
38854;DHT22;24606;51.992;4.198;2022-09-09T15:07:54;21.70;69.20
38854;DHT22;24606;51.992;4.198;2022-09-09T15:12:57;24.20;63.20
38854;DHT22;24606;51.992;4.198;2022-09-09T15:17:59;24.20;61.50
38854;DHT22;24606;51.992;4.198;2022-09-09T15:23:00;24.30;61.60
38854;DHT22;24606;51.992;4.198;2022-09-09T15:28:03;24.20;62.70
38854;DHT22;24606;51.992;4.198;2022-09-09T15:33:07;24.70;61.80
38854;DHT22;24606;51.992;4.198;2022-09-09T15:38:10;24.50;61.70
38854;DHT22;24606;51.992;4.198;2022-09-09T15:43:14;24.50;62.00
38854;DHT22;24606;51.992;4.198;2022-09-09T15:48:16;24.20;63.00
38854;DHT22;24606;51.992;4.198;2022-09-09T15:53:19;23.90;63.60
38854;DHT22;24606;51.992;4.198;2022-09-09T15:58:23;23.70;64.30
38854;DHT22;24606;51.992;4.198;2022-09-09T16:03:25;23.50;64.80
38854;DHT22;24606;51.992;4.198;2022-09-09T16:08:31;22.80;66.00
38854;DHT22;24606;51.992;4.198;2022-09-09T16:13:35;23.00;65.80
38854;DHT22;24606;51.992;4.198;2022-09-09T16:18:39;23.50;63.70
38854;DHT22;24606;51.992;4.198;2022-09-09T16:23:41;22.80;63.90
38854;DHT22;24606;51.992;4.198;2022-09-09T16:28:44;23.60;64.10
38854;DHT22;24606;51.992;4.198;2022-09-09T16:33:47;23.80;63.80
38854;DHT22;24606;51.992;4.198;2022-09-09T16:38:52;23.50;63.90
38854;DHT22;24606;51.992;4.198;2022-09-09T16:43:58;23.40;62.60
38854;DHT22;24606;51.992;4.198;2022-09-09T16:49:01;23.50;64.50
38854;DHT22;24606;51.992;4.198;2022-09-09T16:54:05;23.60;63.30
38854;DHT22;24606;51.992;4.198;2022-09-09T16:59:11;23.50;64.50
38854;DHT22;24606;51.992;4.198;2022-09-09T17:04:15;23.90;63.10
38854;DHT22;24606;51.992;4.198;2022-09-09T17:09:22;24.20;62.30
38854;DHT22;24606;51.992;4.198;2022-09-09T17:14:25;24.50;61.50
38854;DHT22;24606;51.992;4.198;2022-09-09T17:19:27;24.40;61.90
38854;DHT22;24606;51.992;4.198;2022-09-09T17:24:29;23.60;64.20
38854;DHT22;24606;51.992;4.198;2022-09-09T17:29:32;23.70;66.10
38854;DHT22;24606;51.992;4.198;2022-09-09T17:34:36;24.00;64.20
38854;DHT22;24606;51.992;4.198;2022-09-09T17:39:38;24.60;61.90
38854;DHT22;24606;51.992;4.198;2022-09-09T17:44:41;24.60;61.90
38854;DHT22;24606;51.992;4.198;2022-09-09T17:49:43;24.50;61.70
38854;DHT22;24606;51.992;4.198;2022-09-09T17:54:45;24.60;61.40
38854;DHT22;24606;51.992;4.198;2022-09-09T17:59:48;24.60;61.50
38854;DHT22;24606;51.992;4.198;2022-09-09T18:04:50;24.20;62.40
38854;DHT22;24606;51.992;4.198;2022-09-09T18:09:52;24.20;62.40
38854;DHT22;24606;51.992;4.198;2022-09-09T18:14:55;24.50;61.90
38854;DHT22;24606;51.992;4.198;2022-09-09T18:19:57;23.50;64.40
38854;DHT22;24606;51.992;4.198;2022-09-09T18:24:59;24.30;62.50
38854;DHT22;24606;51.992;4.198;2022-09-09T18:30:02;24.40;61.60
38854;DHT22;24606;51.992;4.198;2022-09-09T18:35:04;24.40;61.40
38854;DHT22;24606;51.992;4.198;2022-09-09T18:40:07;23.80;63.80
38854;DHT22;24606;51.992;4.198;2022-09-09T18:45:10;23.30;64.90
38854;DHT22;24606;51.992;4.198;2022-09-09T18:50:12;22.90;66.40
38854;DHT22;24606;51.992;4.198;2022-09-09T18:55:13;23.20;65.30
38854;DHT22;24606;51.992;4.198;2022-09-09T19:00:17;23.10;66.40
38854;DHT22;24606;51.992;4.198;2022-09-09T19:05:18;23.70;64.10
38854;DHT22;24606;51.992;4.198;2022-09-09T19:10:20;23.10;65.20
38854;DHT22;24606;51.992;4.198;2022-09-09T19:15:23;22.80;67.40
38854;DHT22;24606;51.992;4.198;2022-09-09T19:20:25;23.40;64.60
38854;DHT22;24606;51.992;4.198;2022-09-09T19:25:27;23.20;65.10
38854;DHT22;24606;51.992;4.198;2022-09-09T19:30:32;23.10;64.10
38854;DHT22;24606;51.992;4.198;2022-09-09T19:35:34;23.60;63.20
38854;DHT22;24606;51.992;4.198;2022-09-09T19:40:36;23.90;62.20
38854;DHT22;24606;51.992;4.198;2022-09-09T19:45:39;24.10;61.90
38854;DHT22;24606;51.992;4.198;2022-09-09T19:50:41;24.10;61.40
38854;DHT22;24606;51.992;4.198;2022-09-09T19:55:43;24.20;61.10
38854;DHT22;24606;51.992;4.198;2022-09-09T20:00:46;24.20;61.00
38854;DHT22;24606;51.992;4.198;2022-09-09T20:05:48;24.10;61.30
38854;DHT22;24606;51.992;4.198;2022-09-09T20:10:50;24.10;61.00
38854;DHT22;24606;51.992;4.198;2022-09-09T20:15:58;24.40;61.00
38854;DHT22;24606;51.992;4.198;2022-09-09T20:21:02;24.20;60.80
38854;DHT22;24606;51.992;4.198;2022-09-09T20:26:06;24.20;60.70
38854;DHT22;24606;51.992;4.198;2022-09-09T20:31:11;24.20;60.70
38854;DHT22;24606;51.992;4.198;2022-09-09T20:36:15;24.20;61.00
38854;DHT22;24606;51.992;4.198;2022-09-09T20:41:18;24.10;60.80
38854;DHT22;24606;51.992;4.198;2022-09-09T20:46:25;24.20;60.90
38854;DHT22;24606;51.992;4.198;2022-09-09T20:51:28;24.10;61.00
38854;DHT22;24606;51.992;4.198;2022-09-09T20:56:34;24.10;60.90
38854;DHT22;24606;51.992;4.198;2022-09-09T21:01:38;24.10;60.80
38854;DHT22;24606;51.992;4.198;2022-09-09T21:06:40;24.10;60.90
38854;DHT22;24606;51.992;4.198;2022-09-09T21:11:42;23.60;62.30
38854;DHT22;24606;51.992;4.198;2022-09-09T21:16:45;24.00;61.80
38854;DHT22;24606;51.992;4.198;2022-09-09T21:21:47;23.90;61.10
38854;DHT22;24606;51.992;4.198;2022-09-09T21:26:48;23.90;61.10
38854;DHT22;24606;51.992;4.198;2022-09-09T21:31:52;23.90;61.20
38854;DHT22;24606;51.992;4.198;2022-09-09T21:36:55;23.90;61.10
38854;DHT22;24606;51.992;4.198;2022-09-09T21:41:57;23.90;61.10
38854;DHT22;24606;51.992;4.198;2022-09-09T21:47:02;24.00;61.40
38854;DHT22;24606;51.992;4.198;2022-09-09T21:52:04;23.90;61.20
38854;DHT22;24606;51.992;4.198;2022-09-09T21:57:05;24.10;61.40
38854;DHT22;24606;51.992;4.198;2022-09-09T22:02:09;23.60;62.20
38854;DHT22;24606;51.992;4.198;2022-09-09T22:07:12;23.80;61.60
38854;DHT22;24606;51.992;4.198;2022-09-09T22:12:16;23.90;61.70
38854;DHT22;24606;51.992;4.198;2022-09-09T22:17:19;23.80;62.00
38854;DHT22;24606;51.992;4.198;2022-09-09T22:22:24;23.90;61.20
38854;DHT22;24606;51.992;4.198;2022-09-09T22:27:26;23.90;61.20
38854;DHT22;24606;51.992;4.198;2022-09-09T22:32:29;23.90;61.00
38854;DHT22;24606;51.992;4.198;2022-09-09T22:37:30;23.90;60.90
38854;DHT22;24606;51.992;4.198;2022-09-09T22:42:32;23.80;61.10
38854;DHT22;24606;51.992;4.198;2022-09-09T22:47:36;23.80;61.20
38854;DHT22;24606;51.992;4.198;2022-09-09T22:52:40;23.80;61.50
38854;DHT22;24606;51.992;4.198;2022-09-09T22:57:41;23.50;62.20
38854;DHT22;24606;51.992;4.198;2022-09-09T23:02:45;23.60;61.90
38854;DHT22;24606;51.992;4.198;2022-09-09T23:07:48;23.70;61.70
38854;DHT22;24606;51.992;4.198;2022-09-09T23:12:52;23.80;61.90
38854;DHT22;24606;51.992;4.198;2022-09-09T23:17:55;23.70;61.40
38854;DHT22;24606;51.992;4.198;2022-09-09T23:22:58;23.40;62.20
38854;DHT22;24606;51.992;4.198;2022-09-09T23:28:01;23.60;61.50
38854;DHT22;24606;51.992;4.198;2022-09-09T23:33:04;23.60;61.70
38854;DHT22;24606;51.992;4.198;2022-09-09T23:38:06;23.50;62.50
38854;DHT22;24606;51.992;4.198;2022-09-09T23:43:09;22.80;64.60
38854;DHT22;24606;51.992;4.198;2022-09-09T23:48:12;22.30;66.00
38854;DHT22;24606;51.992;4.198;2022-09-09T23:53:15;22.80;64.50
38854;DHT22;24606;51.992;4.198;2022-09-09T23:58:17;23.00;63.20
